sensor_id;sensor_type;location;lat;lon;timestamp;P1;durP1;ratioP1;P2;durP2;ratioP2
29254;SDS011;16277;48.890;2.306;2023-05-10T00:06:11;6.03;;;2.63;;
29254;SDS011;16277;48.890;2.306;2023-05-10T00:21:16;9.37;;;2.83;;
29254;SDS011;16277;48.890;2.306;2023-05-10T00:36:20;5.63;;;1.90;;
29254;SDS011;16277;48.890;2.306;2023-05-10T00:51:24;8.70;;;2.20;;
29254;SDS011;16277;48.890;2.306;2023-05-10T01:06:29;2.20;;;2.00;;
29254;SDS011;16277;48.890;2.306;2023-05-10T01:21:37;4.63;;;1.77;;
29254;SDS011;16277;48.890;2.306;2023-05-10T01:36:47;1.77;;;1.67;;
29254;SDS011;16277;48.890;2.306;2023-05-10T01:51:58;3.50;;;1.60;;
29254;SDS011;16277;48.890;2.306;2023-05-10T02:07:07;1.33;;;1.23;;
29254;SDS011;16277;48.890;2.306;2023-05-10T02:22:13;2.03;;;1.13;;
29254;SDS011;16277;48.890;2.306;2023-05-10T02:37:20;1.80;;;0.87;;
29254;SDS011;16277;48.890;2.306;2023-05-10T02:52:27;1.50;;;0.93;;
29254;SDS011;16277;48.890;2.306;2023-05-10T03:07:34;1.63;;;0.90;;
29254;SDS011;16277;48.890;2.306;2023-05-10T03:22:40;5.20;;;1.30;;
29254;SDS011;16277;48.890;2.306;2023-05-10T03:37:49;2.73;;;1.57;;
29254;SDS011;16277;48.890;2.306;2023-05-10T03:52:53;1.63;;;1.17;;
29254;SDS011;16277;48.890;2.306;2023-05-10T04:07:58;4.93;;;1.87;;
29254;SDS011;16277;48.890;2.306;2023-05-10T04:23:03;1.10;;;0.80;;
29254;SDS011;16277;48.890;2.306;2023-05-10T04:38:07;1.40;;;0.80;;
29254;SDS011;16277;48.890;2.306;2023-05-10T04:53:12;1.33;;;1.00;;
29254;SDS011;16277;48.890;2.306;2023-05-10T05:08:17;4.13;;;1.07;;
29254;SDS011;16277;48.890;2.306;2023-05-10T05:23:22;1.90;;;0.90;;
29254;SDS011;16277;48.890;2.306;2023-05-10T05:38:37;3.87;;;1.30;;
29254;SDS011;16277;48.890;2.306;2023-05-10T05:53:44;5.93;;;2.57;;
29254;SDS011;16277;48.890;2.306;2023-05-10T06:08:48;6.60;;;2.23;;
29254;SDS011;16277;48.890;2.306;2023-05-10T06:23:54;6.23;;;2.70;;
29254;SDS011;16277;48.890;2.306;2023-05-10T06:38:58;4.67;;;3.10;;
29254;SDS011;16277;48.890;2.306;2023-05-10T06:54:03;8.10;;;3.70;;
29254;SDS011;16277;48.890;2.306;2023-05-10T07:09:07;14.87;;;4.50;;
29254;SDS011;16277;48.890;2.306;2023-05-10T07:24:11;5.90;;;3.00;;
29254;SDS011;16277;48.890;2.306;2023-05-10T07:39:16;13.20;;;3.47;;
29254;SDS011;16277;48.890;2.306;2023-05-10T07:54:29;7.82;;;2.17;;
29254;SDS011;16277;48.890;2.306;2023-05-10T08:09:33;7.47;;;3.70;;
29254;SDS011;16277;48.890;2.306;2023-05-10T08:24:38;26.87;;;5.97;;
29254;SDS011;16277;48.890;2.306;2023-05-10T08:39:44;7.43;;;4.70;;
29254;SDS011;16277;48.890;2.306;2023-05-10T08:54:50;5.53;;;3.57;;
29254;SDS011;16277;48.890;2.306;2023-05-10T09:09:55;13.43;;;6.73;;
29254;SDS011;16277;48.890;2.306;2023-05-10T09:25:08;15.63;;;6.80;;
29254;SDS011;16277;48.890;2.306;2023-05-10T09:40:14;24.73;;;8.13;;
29254;SDS011;16277;48.890;2.306;2023-05-10T09:55:20;20.90;;;7.30;;
29254;SDS011;16277;48.890;2.306;2023-05-10T10:10:26;42.90;;;9.17;;
29254;SDS011;16277;48.890;2.306;2023-05-10T10:25:32;23.03;;;8.40;;
29254;SDS011;16277;48.890;2.306;2023-05-10T10:40:36;33.17;;;8.63;;
29254;SDS011;16277;48.890;2.306;2023-05-10T10:55:46;35.57;;;10.83;;
29254;SDS011;16277;48.890;2.306;2023-05-10T11:10:52;32.03;;;8.87;;
29254;SDS011;16277;48.890;2.306;2023-05-10T11:26:08;21.77;;;7.43;;
29254;SDS011;16277;48.890;2.306;2023-05-10T11:41:14;32.57;;;6.83;;
29254;SDS011;16277;48.890;2.306;2023-05-10T11:56:20;23.87;;;6.27;;
29254;SDS011;16277;48.890;2.306;2023-05-10T12:11:27;28.67;;;7.80;;
29254;SDS011;16277;48.890;2.306;2023-05-10T12:26:32;34.77;;;6.80;;
29254;SDS011;16277;48.890;2.306;2023-05-10T12:41:59;19.73;;;5.53;;
29254;SDS011;16277;48.890;2.306;2023-05-10T12:57:04;26.70;;;7.37;;
29254;SDS011;16277;48.890;2.306;2023-05-10T13:12:08;20.07;;;6.53;;
29254;SDS011;16277;48.890;2.306;2023-05-10T13:27:13;33.90;;;7.87;;
29254;SDS011;16277;48.890;2.306;2023-05-10T13:42:18;68.23;;;9.23;;
29254;SDS011;16277;48.890;2.306;2023-05-10T13:57:22;18.73;;;5.63;;
29254;SDS011;16277;48.890;2.306;2023-05-10T14:12:27;24.80;;;6.80;;
29254;SDS011;16277;48.890;2.306;2023-05-10T14:27:31;27.77;;;5.47;;
29254;SDS011;16277;48.890;2.306;2023-05-10T14:42:36;43.03;;;3.90;;
29254;SDS011;16277;48.890;2.306;2023-05-10T14:57:40;3.60;;;2.73;;
29254;SDS011;16277;48.890;2.306;2023-05-10T15:12:46;2.37;;;2.17;;
29254;SDS011;16277;48.890;2.306;2023-05-10T15:27:51;3.40;;;3.20;;
29254;SDS011;16277;48.890;2.306;2023-05-10T15:42:55;3.47;;;2.90;;
29254;SDS011;16277;48.890;2.306;2023-05-10T15:58:00;4.80;;;3.63;;
29254;SDS011;16277;48.890;2.306;2023-05-10T16:13:04;11.03;;;4.13;;
29254;SDS011;16277;48.890;2.306;2023-05-10T16:28:08;3.47;;;3.20;;
29254;SDS011;16277;48.890;2.306;2023-05-10T16:43:13;5.07;;;3.73;;
29254;SDS011;16277;48.890;2.306;2023-05-10T16:58:18;3.03;;;2.83;;
29254;SDS011;16277;48.890;2.306;2023-05-10T17:13:22;6.30;;;3.00;;
29254;SDS011;16277;48.890;2.306;2023-05-10T17:28:27;6.03;;;3.50;;
29254;SDS011;16277;48.890;2.306;2023-05-10T17:43:31;6.20;;;4.97;;
29254;SDS011;16277;48.890;2.306;2023-05-10T17:58:36;9.70;;;4.37;;
29254;SDS011;16277;48.890;2.306;2023-05-10T18:13:40;8.73;;;3.97;;
29254;SDS011;16277;48.890;2.306;2023-05-10T18:28:45;4.77;;;2.70;;
29254;SDS011;16277;48.890;2.306;2023-05-10T18:43:49;6.00;;;4.83;;
29254;SDS011;16277;48.890;2.306;2023-05-10T18:58:54;3.20;;;2.90;;
29254;SDS011;16277;48.890;2.306;2023-05-10T19:13:58;5.87;;;4.67;;
29254;SDS011;16277;48.890;2.306;2023-05-10T19:29:03;8.90;;;3.93;;
29254;SDS011;16277;48.890;2.306;2023-05-10T19:44:07;7.93;;;3.67;;
29254;SDS011;16277;48.890;2.306;2023-05-10T19:59:12;3.70;;;3.30;;
29254;SDS011;16277;48.890;2.306;2023-05-10T20:14:17;16.77;;;5.27;;
29254;SDS011;16277;48.890;2.306;2023-05-10T20:29:21;8.33;;;4.27;;
29254;SDS011;16277;48.890;2.306;2023-05-10T20:44:26;6.60;;;4.53;;
29254;SDS011;16277;48.890;2.306;2023-05-10T20:59:30;5.90;;;3.53;;
29254;SDS011;16277;48.890;2.306;2023-05-10T21:14:35;7.03;;;3.10;;
29254;SDS011;16277;48.890;2.306;2023-05-10T21:29:39;5.50;;;3.47;;
29254;SDS011;16277;48.890;2.306;2023-05-10T21:44:44;6.60;;;4.13;;
29254;SDS011;16277;48.890;2.306;2023-05-10T21:59:48;10.17;;;4.07;;
29254;SDS011;16277;48.890;2.306;2023-05-10T22:14:53;6.93;;;3.97;;
29254;SDS011;16277;48.890;2.306;2023-05-10T22:30:12;13.50;;;5.20;;
29254;SDS011;16277;48.890;2.306;2023-05-10T22:45:17;6.33;;;3.43;;
29254;SDS011;16277;48.890;2.306;2023-05-10T23:00:21;8.57;;;3.90;;
29254;SDS011;16277;48.890;2.306;2023-05-10T23:15:26;6.47;;;4.33;;
29254;SDS011;16277;48.890;2.306;2023-05-10T23:30:31;4.13;;;3.50;;
29254;SDS011;16277;48.890;2.306;2023-05-10T23:45:35;5.90;;;3.17;;
